createdAt,value
2022-08-17T00:01:52.342Z,16.83
2022-08-17T00:04:19.889Z,15.35
2022-08-17T00:06:49.108Z,15.30
2022-08-17T00:09:18.671Z,16.50
2022-08-17T00:12:41.500Z,18.05
2022-08-17T00:14:36.083Z,17.70
2022-08-17T00:17:04.786Z,20.02
2022-08-17T00:19:32.735Z,17.13
2022-08-17T00:22:33.585Z,18.98
2022-08-17T00:24:49.859Z,18.40
2022-08-17T00:27:16.462Z,20.48
2022-08-17T00:29:45.491Z,20.60
2022-08-17T00:33:10.814Z,19.55
2022-08-17T00:34:59.609Z,20.67
2022-08-17T00:37:26.337Z,20.67
2022-08-17T00:39:52.920Z,20.55
2022-08-17T00:42:19.983Z,20.33
2022-08-17T00:44:46.835Z,21.83
2022-08-17T00:47:14.070Z,19.65
2022-08-17T00:49:40.597Z,23.17
2022-08-17T00:52:16.713Z,23.00
2022-08-17T00:54:47.119Z,23.60
2022-08-17T00:57:21.707Z,21.23
2022-08-17T01:00:01.919Z,22.25
2022-08-17T01:02:34.396Z,22.23
2022-08-17T01:05:08.279Z,23.98
2022-08-17T01:07:34.823Z,23.00
2022-08-17T01:10:06.656Z,20.05
2022-08-17T01:12:35.729Z,21.55
2022-08-17T01:15:02.648Z,22.75
2022-08-17T01:17:29.504Z,23.45
2022-08-17T01:19:56.556Z,22.25
2022-08-17T01:22:24.892Z,23.95
2022-08-17T01:24:57.030Z,21.35
2022-08-17T01:27:24.517Z,21.27
2022-08-17T01:29:58.610Z,21.63
2022-08-17T01:32:26.929Z,21.77
2022-08-17T01:34:54.074Z,21.88
2022-08-17T01:37:29.006Z,19.60
2022-08-17T01:40:23.003Z,19.90
2022-08-17T01:42:59.342Z,20.92
2022-08-17T01:45:30.475Z,21.58
2022-08-17T01:47:57.145Z,20.58
2022-08-17T01:50:28.418Z,21.20
2022-08-17T01:53:13.424Z,21.48
2022-08-17T01:55:50.253Z,18.70
2022-08-17T01:58:17.362Z,17.20
2022-08-17T02:01:00.214Z,18.48
2022-08-17T02:03:27.669Z,17.45
2022-08-17T02:05:54.651Z,16.77
2022-08-17T02:08:39.351Z,17.15
2022-08-17T02:11:14.640Z,16.23
2022-08-17T02:13:42.397Z,16.17
2022-08-17T02:16:08.917Z,14.85
2022-08-17T02:18:35.498Z,18.65
2022-08-17T02:21:02.644Z,14.88
2022-08-17T02:23:32.292Z,15.38
2022-08-17T02:26:00.202Z,14.70
2022-08-17T02:28:28.548Z,17.55
2022-08-17T02:31:03.423Z,15.20
2022-08-17T02:33:43.162Z,16.90
2022-08-17T02:36:12.679Z,14.10
2022-08-17T02:38:40.775Z,17.42
2022-08-17T02:41:07.641Z,14.18
2022-08-17T02:43:34.973Z,14.32
2022-08-17T02:46:01.625Z,14.05
2022-08-17T02:48:31.071Z,14.48
2022-08-17T02:50:58.843Z,14.00
2022-08-17T02:53:25.773Z,14.90
2022-08-17T02:55:53.255Z,14.20
2022-08-17T02:58:34.575Z,14.38
2022-08-17T03:01:04.692Z,14.63
2022-08-17T03:03:31.749Z,18.58
2022-08-17T03:05:58.246Z,14.20
2022-08-17T03:08:25.595Z,14.13
2022-08-17T03:10:52.227Z,19.02
2022-08-17T03:13:18.889Z,15.82
2022-08-17T03:15:47.374Z,15.95
2022-08-17T03:18:19.089Z,14.85
2022-08-17T03:20:51.705Z,16.05
2022-08-17T03:23:18.787Z,15.27
2022-08-17T03:25:52.828Z,15.55
2022-08-17T03:28:19.757Z,14.32
2022-08-17T03:30:46.263Z,18.25
2022-08-17T03:33:13.053Z,14.93
2022-08-17T03:35:40.602Z,22.98
2022-08-17T03:38:12.659Z,15.25
2022-08-17T03:40:56.569Z,14.65
2022-08-17T03:43:25.756Z,14.02
2022-08-17T03:46:27.915Z,13.43
2022-08-17T03:49:16.009Z,14.27
2022-08-17T03:52:00.921Z,14.55
2022-08-17T03:54:45.896Z,14.48
2022-08-17T03:57:12.842Z,16.05
2022-08-17T03:59:40.978Z,15.13
2022-08-17T04:02:22.101Z,15.38
2022-08-17T04:04:52.278Z,16.17
2022-08-17T04:07:23.451Z,15.32
2022-08-17T04:09:50.552Z,15.75
2022-08-17T04:12:19.258Z,15.27
2022-08-17T04:14:52.810Z,16.17
2022-08-17T04:17:26.939Z,15.38
2022-08-17T04:19:54.869Z,16.42
2022-08-17T04:22:32.233Z,16.05
2022-08-17T04:25:09.448Z,18.23
2022-08-17T04:27:36.318Z,17.35
2022-08-17T04:30:06.986Z,18.15
2022-08-17T04:33:10.825Z,18.35
2022-08-17T04:35:47.930Z,18.05
2022-08-17T04:38:21.155Z,17.58
2022-08-17T04:41:07.115Z,17.65
2022-08-17T04:43:35.594Z,18.23
2022-08-17T04:46:08.322Z,20.27
2022-08-17T04:48:38.071Z,18.42
2022-08-17T04:51:12.334Z,19.55
2022-08-17T04:53:45.295Z,19.80
2022-08-17T04:56:16.846Z,16.85
2022-08-17T04:58:46.286Z,20.63
2022-08-17T05:01:13.340Z,18.10
2022-08-17T05:03:40.064Z,18.27
2022-08-17T05:06:06.727Z,18.75
2022-08-17T05:08:33.749Z,18.13
2022-08-17T05:11:00.417Z,17.88
2022-08-17T05:13:32.002Z,18.00
2022-08-17T05:16:00.629Z,15.73
2022-08-17T05:18:28.766Z,15.95
2022-08-17T05:20:55.850Z,14.73
2022-08-17T05:23:24.963Z,13.95
2022-08-17T05:25:54.738Z,14.20
2022-08-17T05:28:24.031Z,13.35
2022-08-17T05:30:55.203Z,14.30
2022-08-17T05:33:28.828Z,13.13
2022-08-17T05:35:58.049Z,13.35
2022-08-17T05:38:26.510Z,12.35
2022-08-17T05:40:54.409Z,15.35
2022-08-17T05:43:26.969Z,13.77
2022-08-17T05:46:03.265Z,14.00
2022-08-17T05:48:40.522Z,12.52
2022-08-17T05:51:16.470Z,13.02
2022-08-17T05:53:52.561Z,12.93
2022-08-17T05:56:51.149Z,12.38
2022-08-17T05:59:31.030Z,13.40
2022-08-17T06:02:28.193Z,11.68
2022-08-17T06:05:09.753Z,14.80
2022-08-17T06:07:43.435Z,13.45
2022-08-17T06:10:25.519Z,11.63
2022-08-17T06:13:07.003Z,12.07
2022-08-17T06:16:01.840Z,13.10
2022-08-17T06:18:36.374Z,15.20
2022-08-17T06:21:06.744Z,10.32
2022-08-17T06:23:37.895Z,9.23
2022-08-17T06:26:14.834Z,9.43
2022-08-17T06:28:55.073Z,8.48
2022-08-17T06:31:31.790Z,8.82
2022-08-17T06:34:02.903Z,10.90
2022-08-17T06:36:50.827Z,9.05
2022-08-17T06:39:52.981Z,9.23
2022-08-17T06:43:02.293Z,11.13
2022-08-17T06:45:41.911Z,6.85
2022-08-17T06:48:39.552Z,8.85
2022-08-17T06:51:30.467Z,6.75
2022-08-17T06:54:07.081Z,9.13
2022-08-17T06:56:54.294Z,9.60
2022-08-17T06:59:55.724Z,5.80
2022-08-17T07:02:53.127Z,8.80
2022-08-17T07:05:24.222Z,4.78
2022-08-17T07:08:07.452Z,6.07
2022-08-17T07:11:06.908Z,6.18
2022-08-17T07:14:16.942Z,9.10
2022-08-17T07:16:50.450Z,8.93
2022-08-17T07:19:19.979Z,6.00
2022-08-17T07:22:19.858Z,8.25
2022-08-17T07:24:59.688Z,6.35
2022-08-17T07:27:28.613Z,8.27
2022-08-17T07:30:03.745Z,6.43
2022-08-17T07:32:41.288Z,5.63
2022-08-17T07:35:21.220Z,8.25
2022-08-17T07:38:25.584Z,5.00
2022-08-17T07:41:05.195Z,6.22
2022-08-17T07:43:40.818Z,7.88
2022-08-17T07:46:42.918Z,7.15
2022-08-17T07:49:09.384Z,5.65
2022-08-17T07:51:40.795Z,8.35
2022-08-17T07:54:16.117Z,5.95
2022-08-17T07:56:44.981Z,4.82
2022-08-17T07:59:16.698Z,3.97
2022-08-17T08:01:46.850Z,4.68
2022-08-17T08:05:00.618Z,3.75
2022-08-17T08:07:37.397Z,5.50
2022-08-17T08:10:14.021Z,4.40
2022-08-17T08:12:45.128Z,3.92
2022-08-17T08:15:19.051Z,5.32
2022-08-17T08:17:55.931Z,3.85
2022-08-17T08:20:53.289Z,7.28
2022-08-17T08:23:46.559Z,3.50
2022-08-17T08:26:37.496Z,7.60
2022-08-17T08:29:35.674Z,3.95
2022-08-17T08:32:08.502Z,3.47
2022-08-17T08:35:02.479Z,4.95
2022-08-17T08:37:36.694Z,3.65
2022-08-17T08:40:36.981Z,4.93
2022-08-17T08:43:22.365Z,5.10
2022-08-17T08:46:19.707Z,3.15
2022-08-17T08:49:06.463Z,5.10
2022-08-17T08:51:49.430Z,5.25
2022-08-17T08:54:26.561Z,4.30
2022-08-17T08:57:26.793Z,3.25
2022-08-17T09:00:17.214Z,8.07
2022-08-17T09:03:05.333Z,3.97
2022-08-17T09:06:00.527Z,4.45
2022-08-17T09:08:47.483Z,6.57
2022-08-17T09:11:30.547Z,4.88
2022-08-17T09:14:21.704Z,5.03
2022-08-17T09:17:01.757Z,5.93
2022-08-17T09:19:31.109Z,5.45
2022-08-17T09:22:12.004Z,6.30
2022-08-17T09:24:41.804Z,4.93
2022-08-17T09:27:14.150Z,4.13
2022-08-17T09:29:50.141Z,6.45
2022-08-17T09:32:31.774Z,5.22
2022-08-17T09:35:02.703Z,5.10
2022-08-17T09:38:13.499Z,6.88
2022-08-17T09:40:46.898Z,5.68
2022-08-17T09:43:31.562Z,5.05
2022-08-17T09:46:02.942Z,4.85
2022-08-17T09:48:57.603Z,5.40
2022-08-17T09:51:30.402Z,3.88
2022-08-17T09:54:14.744Z,2.90
2022-08-17T09:57:25.874Z,5.88
2022-08-17T10:00:15.986Z,5.03
2022-08-17T10:03:04.527Z,3.20
2022-08-17T10:05:47.861Z,4.43
2022-08-17T10:08:32.595Z,5.43
2022-08-17T10:11:14.284Z,3.25
2022-08-17T10:13:52.894Z,4.80
2022-08-17T10:16:38.333Z,3.72
2022-08-17T10:19:26.398Z,3.00
2022-08-17T10:22:34.494Z,7.30
2022-08-17T10:25:26.034Z,3.25
2022-08-17T10:28:14.260Z,3.55
2022-08-17T10:31:16.592Z,3.50
2022-08-17T10:34:18.572Z,4.97
2022-08-17T10:37:19.807Z,5.97
2022-08-17T10:40:13.412Z,3.33
2022-08-17T10:43:00.541Z,3.05
2022-08-17T10:45:36.759Z,5.00
2022-08-17T10:48:07.147Z,3.45
2022-08-17T10:50:46.331Z,3.35
2022-08-17T10:53:49.435Z,3.72
2022-08-17T10:58:56.272Z,3.08
2022-08-17T11:01:48.893Z,3.65
2022-08-17T11:04:18.153Z,4.97
2022-08-17T11:07:26.219Z,3.15
2022-08-17T11:10:19.071Z,4.32
2022-08-17T11:12:45.557Z,3.50
2022-08-17T11:15:41.358Z,3.33
2022-08-17T11:18:32.136Z,2.83
2022-08-17T11:21:30.365Z,4.10
2022-08-17T11:24:07.561Z,3.10
2022-08-17T11:26:36.963Z,4.10
2022-08-17T11:29:09.650Z,3.85
2022-08-17T11:31:43.824Z,3.03
2022-08-17T11:34:21.584Z,5.90
2022-08-17T11:37:06.438Z,5.45
2022-08-17T11:39:45.903Z,4.55
2022-08-17T11:42:48.302Z,4.32
2022-08-17T11:45:33.202Z,4.57
2022-08-17T11:48:44.279Z,5.63
2022-08-17T11:51:35.730Z,6.95
2022-08-17T11:54:32.305Z,4.40
2022-08-17T11:56:54.558Z,3.80
2022-08-17T11:59:43.781Z,4.03
2022-08-17T12:02:31.699Z,5.55
2022-08-17T12:05:14.278Z,3.40
2022-08-17T12:08:05.718Z,4.22
2022-08-17T12:10:35.491Z,5.35
2022-08-17T12:13:11.178Z,7.28
2022-08-17T12:15:49.454Z,4.20
2022-08-17T12:18:29.032Z,4.72
2022-08-17T12:21:12.267Z,5.88
2022-08-17T12:23:57.652Z,4.30
2022-08-17T12:26:36.007Z,3.78
2022-08-17T12:29:18.111Z,4.22
2022-08-17T12:32:03.866Z,4.95
2022-08-17T12:38:32.105Z,2.80
2022-08-17T12:41:21.488Z,3.45
2022-08-17T12:44:05.176Z,3.83
2022-08-17T12:46:47.386Z,4.88
2022-08-17T12:49:22.923Z,6.32
2022-08-17T12:51:51.361Z,2.90
2022-08-17T12:54:39.588Z,4.32
2022-08-17T12:57:12.616Z,5.35
2022-08-17T12:59:46.268Z,5.28
2022-08-17T13:02:38.090Z,5.13
2022-08-17T13:05:06.909Z,6.25
2022-08-17T13:07:42.029Z,2.20
2022-08-17T13:10:19.328Z,2.25
2022-08-17T13:12:45.825Z,1.92
2022-08-17T13:15:38.198Z,2.92
2022-08-17T13:18:39.611Z,4.88
2022-08-17T13:21:27.842Z,3.67
2022-08-17T13:24:03.707Z,2.05
2022-08-17T13:26:36.968Z,3.33
2022-08-17T13:29:23.332Z,1.48
2022-08-17T13:31:58.879Z,1.35
2022-08-17T13:35:12.591Z,1.88
2022-08-17T13:37:36.998Z,2.22
2022-08-17T13:40:09.709Z,1.35
2022-08-17T13:42:53.004Z,2.22
2022-08-17T13:45:34.897Z,1.30
2022-08-17T13:48:11.939Z,1.40
2022-08-17T13:50:59.529Z,2.33
2022-08-17T13:53:51.539Z,2.38
2022-08-17T13:56:37.371Z,1.35
2022-08-17T13:59:16.480Z,1.75
2022-08-17T14:01:53.593Z,1.40
2022-08-17T14:04:27.950Z,1.17
2022-08-17T14:06:59.382Z,1.92
2022-08-17T14:09:37.749Z,4.57
2022-08-17T14:12:10.707Z,1.27
2022-08-17T14:14:38.291Z,2.83
2022-08-17T14:17:05.272Z,1.65
2022-08-17T14:19:34.724Z,1.45
2022-08-17T14:22:01.862Z,5.85
2022-08-17T14:24:34.617Z,1.98
2022-08-17T14:29:32.065Z,2.55
2022-08-17T14:32:04.302Z,1.50
2022-08-17T14:34:30.827Z,1.40
2022-08-17T14:36:57.330Z,2.53
2022-08-17T14:39:23.980Z,2.50
2022-08-17T14:41:50.622Z,2.40
2022-08-17T14:44:17.334Z,1.73
2022-08-17T14:46:45.055Z,2.50
2022-08-17T14:49:13.315Z,3.65
2022-08-17T14:51:43.860Z,1.70
2022-08-17T14:54:11.626Z,2.72
2022-08-17T14:57:22.440Z,3.15
2022-08-17T14:59:44.797Z,1.98
2022-08-17T15:02:12.163Z,1.83
2022-08-17T15:04:43.408Z,1.50
2022-08-17T15:07:12.007Z,7.75
2022-08-17T15:09:39.096Z,1.80
2022-08-17T15:12:06.668Z,4.55
2022-08-17T15:14:34.985Z,1.95
2022-08-17T15:17:02.770Z,2.83
2022-08-17T15:19:29.353Z,2.22
2022-08-17T15:21:55.847Z,4.47
2022-08-17T15:24:22.395Z,2.28
2022-08-17T15:26:48.887Z,2.50
2022-08-17T15:29:15.392Z,3.42
2022-08-17T15:31:41.927Z,3.08
2022-08-17T15:34:08.746Z,3.20
2022-08-17T15:36:35.879Z,2.38
2022-08-17T15:39:03.189Z,2.70
2022-08-17T15:41:29.985Z,2.95
2022-08-17T15:43:56.987Z,2.05
2022-08-17T15:46:25.881Z,2.58
2022-08-17T15:48:58.969Z,2.08
2022-08-17T15:51:31.081Z,2.33
2022-08-17T15:56:43.876Z,1.50
2022-08-17T15:59:10.382Z,1.77
2022-08-17T16:03:12.965Z,3.00
2022-08-17T16:04:28.446Z,2.20
2022-08-17T16:06:57.817Z,2.72
2022-08-17T16:09:24.347Z,1.98
2022-08-17T16:11:55.375Z,2.33
2022-08-17T16:14:24.106Z,2.13
2022-08-17T16:16:50.980Z,2.47
2022-08-17T16:19:17.496Z,2.17
2022-08-17T16:21:43.977Z,2.42
2022-08-17T16:24:12.857Z,5.25
2022-08-17T16:26:40.606Z,2.00
2022-08-17T16:29:07.836Z,2.30
2022-08-17T16:31:36.030Z,1.90
2022-08-17T16:34:17.835Z,2.45
2022-08-17T16:36:54.658Z,4.28
2022-08-17T16:39:24.561Z,3.25
2022-08-17T16:41:51.214Z,2.08
2022-08-17T16:44:20.418Z,2.85
2022-08-17T16:46:48.470Z,2.90
2022-08-17T16:49:35.773Z,2.47
2022-08-17T16:52:03.378Z,1.70
2022-08-17T16:54:30.303Z,1.75
2022-08-17T16:56:56.858Z,2.65
2022-08-17T16:59:30.903Z,2.78
2022-08-17T17:02:09.985Z,2.83
2022-08-17T17:04:45.881Z,2.80
2022-08-17T17:07:49.831Z,6.03
2022-08-17T17:10:24.152Z,4.45
2022-08-17T17:13:01.858Z,6.68
2022-08-17T17:15:39.518Z,7.10
2022-08-17T17:18:11.506Z,10.60
2022-08-17T17:20:58.408Z,9.43
2022-08-17T17:23:46.575Z,11.35
2022-08-17T17:26:35.207Z,10.50
2022-08-17T17:29:09.347Z,12.60
2022-08-17T17:31:44.219Z,13.68
2022-08-17T17:34:15.907Z,15.60
2022-08-17T17:37:07.223Z,14.48
2022-08-17T17:39:43.727Z,22.42
2022-08-17T17:42:14.876Z,17.33
2022-08-17T17:44:54.159Z,18.08
2022-08-17T17:47:21.305Z,17.50
2022-08-17T17:49:50.504Z,15.75
2022-08-17T17:52:29.236Z,13.43
2022-08-17T17:55:35.153Z,12.10
2022-08-17T17:58:26.459Z,15.93
2022-08-17T18:01:30.322Z,9.93
2022-08-17T18:03:59.537Z,10.77
2022-08-17T18:06:40.089Z,11.20
2022-08-17T18:09:19.485Z,13.00
2022-08-17T18:12:00.902Z,9.73
2022-08-17T18:14:27.466Z,12.43
2022-08-17T18:16:57.298Z,11.38
2022-08-17T18:19:26.256Z,8.85
2022-08-17T18:22:14.382Z,8.48
2022-08-17T18:24:44.814Z,9.02
2022-08-17T18:27:23.380Z,7.97
2022-08-17T18:29:53.346Z,8.50
2022-08-17T18:32:22.690Z,6.28
2022-08-17T18:35:01.674Z,5.15
2022-08-17T18:37:49.406Z,4.25
2022-08-17T18:40:23.409Z,5.72
2022-08-17T18:43:03.831Z,4.00
2022-08-17T18:45:47.945Z,4.35
2022-08-17T18:48:22.643Z,3.90
2022-08-17T18:50:51.474Z,3.58
2022-08-17T18:54:01.360Z,4.40
2022-08-17T18:56:31.709Z,5.93
2022-08-17T18:59:21.905Z,3.60
2022-08-17T19:02:32.496Z,5.18
2022-08-17T19:05:26.557Z,4.72
2022-08-17T19:07:53.560Z,4.22
2022-08-17T19:10:46.195Z,6.05
2022-08-17T19:13:23.932Z,4.35
2022-08-17T19:16:11.583Z,3.90
2022-08-17T19:18:48.474Z,4.97
2022-08-17T19:21:40.414Z,4.45
2022-08-17T19:24:11.314Z,4.45
2022-08-17T19:26:53.561Z,4.95
2022-08-17T19:29:46.941Z,5.72
2022-08-17T19:32:17.747Z,5.65
2022-08-17T19:34:44.770Z,6.05
2022-08-17T19:37:22.187Z,6.18
2022-08-17T19:40:09.160Z,9.30
2022-08-17T19:42:52.425Z,5.28
2022-08-17T19:45:42.216Z,8.73
2022-08-17T19:48:20.614Z,6.80
2022-08-17T19:51:00.884Z,4.97
2022-08-17T19:54:07.367Z,8.32
2022-08-17T19:56:58.919Z,7.80
2022-08-17T19:59:58.382Z,5.50
2022-08-17T20:02:37.000Z,6.38
2022-08-17T20:05:11.957Z,6.72
2022-08-17T20:08:03.441Z,6.45
2022-08-17T20:10:39.188Z,6.22
2022-08-17T20:13:11.191Z,5.93
2022-08-17T20:15:41.909Z,8.48
2022-08-17T20:18:33.231Z,5.72
2022-08-17T20:21:06.139Z,7.22
2022-08-17T20:26:19.469Z,6.13
2022-08-17T20:29:07.726Z,6.03
2022-08-17T20:31:55.090Z,5.72
2022-08-17T20:34:30.993Z,6.45
2022-08-17T20:37:07.853Z,5.68
2022-08-17T20:39:38.069Z,5.78
2022-08-17T20:42:07.178Z,5.57
2022-08-17T20:44:37.461Z,6.63
2022-08-17T20:47:10.219Z,6.53
2022-08-17T20:49:44.498Z,6.93
2022-08-17T20:52:35.346Z,6.28
2022-08-17T20:55:03.186Z,6.00
2022-08-17T20:57:32.537Z,10.27
2022-08-17T21:00:14.452Z,6.05
2022-08-17T21:02:50.526Z,6.13
2022-08-17T21:05:59.830Z,6.10
2022-08-17T21:08:30.517Z,6.70
2022-08-17T21:11:00.093Z,5.68
2022-08-17T21:13:56.070Z,5.35
2022-08-17T21:16:33.898Z,5.93
2022-08-17T21:19:33.937Z,7.82
2022-08-17T21:22:35.643Z,8.75
2022-08-17T21:25:37.180Z,7.95
2022-08-17T21:28:37.540Z,5.72
2022-08-17T21:31:33.175Z,7.28
2022-08-17T21:34:16.046Z,6.35
2022-08-17T21:36:50.671Z,6.95
2022-08-17T21:39:24.145Z,8.73
2022-08-17T21:41:58.346Z,7.13
2022-08-17T21:44:36.862Z,8.00
2022-08-17T21:47:21.966Z,8.48
2022-08-17T21:49:48.494Z,10.30
2022-08-17T21:52:18.191Z,8.00
2022-08-17T21:54:57.372Z,9.10
2022-08-17T21:57:27.623Z,8.20
2022-08-17T22:00:00.452Z,9.23
2022-08-17T22:02:59.723Z,7.35
2022-08-17T22:05:35.312Z,8.20
2022-08-17T22:08:18.418Z,7.63
2022-08-17T22:10:49.083Z,7.38
2022-08-17T22:13:22.765Z,6.93
2022-08-17T22:16:27.715Z,7.72
2022-08-17T22:18:57.613Z,7.03
2022-08-17T22:21:24.654Z,8.52
2022-08-17T22:24:07.315Z,7.13
2022-08-17T22:27:07.526Z,7.20
2022-08-17T22:29:45.883Z,9.63
2022-08-17T22:32:31.272Z,6.40
2022-08-17T22:35:23.857Z,6.78
2022-08-17T22:37:50.476Z,7.63
2022-08-17T22:40:51.044Z,6.72
2022-08-17T22:43:26.040Z,7.45
2022-08-17T22:45:56.103Z,6.97
2022-08-17T22:48:27.189Z,6.82
2022-08-17T22:51:13.465Z,8.38
2022-08-17T22:54:34.125Z,8.00
2022-08-17T22:57:22.900Z,6.85
2022-08-17T22:59:55.676Z,6.95
2022-08-17T23:02:26.117Z,6.45
2022-08-17T23:05:13.060Z,6.90
2022-08-17T23:07:40.430Z,6.18
2022-08-17T23:10:09.853Z,7.13
2022-08-17T23:12:39.846Z,6.25
2022-08-17T23:15:14.408Z,6.72
2022-08-17T23:17:42.020Z,6.55
2022-08-17T23:20:12.532Z,6.93
2022-08-17T23:22:51.220Z,7.97
2022-08-17T23:25:28.738Z,5.78
2022-08-17T23:27:57.347Z,7.05
2022-08-17T23:30:25.605Z,7.97
2022-08-17T23:32:54.304Z,8.20
2022-08-17T23:35:38.976Z,7.30
2022-08-17T23:38:07.740Z,9.20
2022-08-17T23:40:34.538Z,8.80
2022-08-17T23:43:01.088Z,8.25
2022-08-17T23:45:32.642Z,8.15
2022-08-17T23:48:00.307Z,9.07
2022-08-17T23:50:29.971Z,8.88
2022-08-17T23:52:57.839Z,9.38
2022-08-17T23:55:24.411Z,8.82
2022-08-17T23:57:51.129Z,9.38
